Time;durP1;ratioP1;P1;durP2;ratioP2;P2;SDS_P1;SDS_P2;PMS_P1;PMS_P2;Temp;Humidity;BMP_temperature;BMP_pressure;BME280_temperature;BME280_humidity;BME280_pressure;Samples;Min_cycle;Max_cycle;Signal;HPM_P1;HPM_P2
2023/08/27 00:02:07;;;;;;;4.80;4.40;;;;;;;21.44;62.66;98242.88;6969606;28;20230;-86
2023/08/27 00:05:29;;;;;;;4.97;4.30;;;;;;;20.93;62.85;98164.06;6969503;28;20363;-86
2023/08/27 00:08:51;;;;;;;8.93;4.60;;;;;;;21.30;63.37;98217.22;6969845;28;20301;-86
2023/08/27 00:12:12;;;;;;;5.27;3.83;;;;;;;21.86;61.22;98220.25;6970180;28;20209;-86
2023/08/27 00:16:01;;;;;;;5.00;4.20;;;;;;;21.72;61.65;98213.81;6968543;28;20233;-86
2023/08/27 00:19:24;;;;;;;3.77;3.13;;;;;;;21.63;61.53;98190.81;6970093;28;20660;-86
2023/08/27 00:22:46;;;;;;;4.40;3.83;;;;;;;21.71;61.13;98158.09;6969212;28;20363;-87
2023/08/27 00:26:07;;;;;;;5.93;4.27;;;;;;;21.08;62.36;98138.44;6968785;28;20348;-86
2023/08/27 00:29:29;;;;;;;6.80;4.63;;;;;;;21.45;62.61;98164.13;6969281;28;20350;-86
2023/08/27 00:32:50;;;;;;;7.57;4.10;;;;;;;21.48;62.15;98166.31;6969740;28;20222;-86
2023/08/27 00:36:13;;;;;;;5.47;3.97;;;;;;;21.45;62.07;98184.16;6968946;28;20251;-86
2023/08/27 00:39:36;;;;;;;8.17;4.60;;;;;;;21.04;63.41;98222.38;6970418;28;20319;-86
2023/08/27 00:42:57;;;;;;;6.80;4.70;;;;;;;20.73;64.47;98207.22;6949888;28;20257;-86
2023/08/27 00:46:19;;;;;;;10.53;5.27;;;;;;;20.54;66.54;98193.38;6969537;28;20285;-86
2023/08/27 00:49:42;;;;;;;5.57;5.03;;;;;;;21.04;65.08;98212.22;6969457;28;20198;-86
2023/08/27 00:53:05;;;;;;;7.50;5.17;;;;;;;21.02;65.15;98216.34;6969916;28;20623;-86
2023/08/27 00:56:26;;;;;;;5.80;4.80;;;;;;;20.99;65.21;98208.72;6970776;28;20735;-86
2023/08/27 00:59:48;;;;;;;5.93;4.73;;;;;;;21.23;64.20;98231.53;6975677;28;20238;-85
2023/08/27 01:03:10;;;;;;;7.03;4.70;;;;;;;21.71;63.16;98231.41;6975271;28;20234;-86
2023/08/27 01:06:32;;;;;;;8.33;4.67;;;;;;;21.73;62.63;98245.63;6974418;28;20263;-86
2023/08/27 01:10:03;;;;;;;4.23;3.67;;;;;;;21.64;61.71;98214.41;6975834;28;20281;-86
2023/08/27 01:13:29;;;;;;;4.43;3.90;;;;;;;21.75;62.08;98265.38;6975905;28;20224;-86
2023/08/27 01:17:01;;;;;;;8.03;4.47;;;;;;;21.55;62.98;98254.56;6950470;28;20218;-85
2023/08/27 01:20:23;;;;;;;5.30;4.13;;;;;;;21.80;62.22;98249.69;6973260;28;20253;-86
2023/08/27 01:23:46;;;;;;;6.23;4.40;;;;;;;21.72;63.00;98244.81;6975293;28;20369;-86
2023/08/27 01:27:12;;;;;;;4.67;4.20;;;;;;;21.63;62.29;98188.91;6974722;28;20209;-86
2023/08/27 01:30:40;;;;;;;7.73;4.33;;;;;;;21.91;62.21;98206.47;6975931;28;20589;-86
2023/08/27 01:34:05;;;;;;;5.43;4.30;;;;;;;22.17;61.64;98225.09;6976472;28;20608;-86
2023/08/27 01:37:27;;;;;;;9.17;3.90;;;;;;;21.71;60.90;98155.38;6975490;28;20241;-85
2023/08/27 01:40:50;;;;;;;4.20;3.80;;;;;;;22.05;61.30;98216.44;6976362;28;20233;-86
2023/08/27 01:44:11;;;;;;;5.03;4.57;;;;;;;21.06;63.99;98198.25;6975821;28;20375;-85
2023/08/27 01:47:33;;;;;;;7.53;4.53;;;;;;;21.47;63.22;98192.91;6976034;28;20608;-86
2023/08/27 01:50:55;;;;;;;8.57;4.93;;;;;;;21.74;63.29;98189.66;6977068;28;20243;-85
2023/08/27 01:54:17;;;;;;;6.90;4.40;;;;;;;21.95;62.42;98182.81;6977264;28;20226;-85
2023/08/27 01:57:41;;;;;;;6.17;4.53;;;;;;;21.85;62.67;98186.50;6977141;28;20209;-85
2023/08/27 02:01:02;;;;;;;7.73;4.77;;;;;;;21.71;63.28;98180.06;6977742;28;20308;-86
2023/08/27 02:04:24;;;;;;;7.67;4.17;;;;;;;21.92;61.71;98150.44;6976853;28;20313;-85
2023/08/27 02:07:45;;;;;;;7.63;4.20;;;;;;;21.04;62.50;98058.72;6976889;28;20222;-86
2023/08/27 02:11:07;;;;;;;4.87;4.47;;;;;;;21.51;62.84;98163.81;6977333;28;20222;-85
2023/08/27 02:14:30;;;;;;;7.23;4.90;;;;;;;21.39;64.20;98160.63;6978148;28;20319;-86
2023/08/27 02:17:51;;;;;;;5.50;4.67;;;;;;;21.71;63.71;98169.09;6977393;28;20288;-85
2023/08/27 02:21:13;;;;;;;5.53;4.50;;;;;;;21.86;62.90;98177.16;6979537;28;20282;-85
2023/08/27 02:24:34;;;;;;;8.63;4.17;;;;;;;21.67;62.64;98178.19;6978469;28;20300;-86
2023/08/27 02:28:02;;;;;;;7.13;4.47;;;;;;;21.46;63.58;98201.41;6979314;28;20213;-86
2023/08/27 02:31:25;;;;;;;6.80;4.67;;;;;;;21.60;63.40;98208.69;6972765;28;20303;-86
2023/08/27 02:34:47;;;;;;;6.03;4.10;;;;;;;21.57;63.87;98223.00;6970862;28;20317;-86
2023/08/27 02:38:08;;;;;;;5.13;4.47;;;;;;;21.85;62.79;98210.38;6970421;28;20277;-86
2023/08/27 02:41:30;;;;;;;7.53;4.37;;;;;;;21.63;63.13;98204.53;6969189;28;20380;-86
2023/08/27 02:44:51;;;;;;;5.30;4.53;;;;;;;21.58;63.38;98172.50;6962010;28;20261;-86
2023/08/27 02:48:14;;;;;;;5.50;4.53;;;;;;;21.85;63.02;98200.22;6970718;28;20711;-86
2023/08/27 02:51:36;;;;;;;13.23;4.97;;;;;;;21.90;62.97;98216.63;6970750;28;20263;-86
2023/08/27 02:54:57;;;;;;;7.40;4.23;;;;;;;22.01;62.91;98189.88;6971141;28;20765;-86
2023/08/27 02:58:19;;;;;;;5.27;4.07;;;;;;;22.25;61.43;98176.94;6970389;28;20245;-85
2023/08/27 03:01:40;;;;;;;7.30;4.57;;;;;;;21.69;62.66;98182.28;6970438;28;20233;-86
2023/08/27 03:05:05;;;;;;;5.67;4.67;;;;;;;21.57;63.52;98173.63;6970724;28;20585;-85
2023/08/27 03:08:26;;;;;;;6.77;4.53;;;;;;;21.79;63.92;98190.41;6970254;28;20640;-85
2023/08/27 03:11:48;;;;;;;6.63;4.30;;;;;;;22.01;63.29;98187.13;6970606;28;20295;-85
2023/08/27 03:15:16;;;;;;;6.43;5.00;;;;;;;21.83;63.93;98199.69;6965038;28;20326;-85
2023/08/27 03:18:37;;;;;;;5.63;4.57;;;;;;;21.99;63.06;98186.59;6942380;28;20195;-85
2023/08/27 03:22:00;;;;;;;8.47;4.93;;;;;;;22.05;63.08;98161.53;6942768;28;20230;-86
2023/08/27 03:25:22;;;;;;;7.07;4.70;;;;;;;22.21;62.89;98175.88;6942341;28;20268;-85
2023/08/27 03:28:46;;;;;;;5.33;4.33;;;;;;;22.28;62.27;98170.84;6941683;28;20348;-85
2023/08/27 03:32:07;;;;;;;4.97;4.50;;;;;;;22.07;62.86;98159.31;6942554;28;20194;-85
2023/08/27 03:35:29;;;;;;;5.57;4.97;;;;;;;22.05;63.05;98128.59;6942701;28;20229;-85
2023/08/27 03:38:52;;;;;;;4.90;4.43;;;;;;;22.14;62.63;98147.97;6942123;28;20268;-85
2023/08/27 03:42:13;;;;;;;5.73;4.60;;;;;;;22.09;63.01;98126.91;6942421;28;20242;-86
2023/08/27 03:45:39;;;;;;;5.47;4.97;;;;;;;22.10;62.38;98122.22;6941880;28;20658;-86
2023/08/27 03:49:00;;;;;;;5.17;4.60;;;;;;;22.15;62.74;98124.88;6942669;28;20641;-85
2023/08/27 03:52:22;;;;;;;6.00;5.40;;;;;;;21.46;63.76;98048.66;6943410;28;20214;-86
2023/08/27 03:55:45;;;;;;;6.57;5.83;;;;;;;21.68;65.14;98130.44;6942371;28;20277;-84
2023/08/27 03:59:07;;;;;;;7.27;5.70;;;;;;;21.91;64.18;98144.16;6942835;28;20230;-85
2023/08/27 04:02:29;;;;;;;6.67;6.00;;;;;;;21.70;63.94;98136.44;6953724;28;20320;-85
2023/08/27 04:05:50;;;;;;;11.13;8.20;;;;;;;21.64;64.18;98116.47;6942261;28;20211;-85
2023/08/27 04:09:12;;;;;;;10.00;8.90;;;;;;;21.92;64.48;98137.56;6941849;28;20237;-85
2023/08/27 04:12:34;;;;;;;10.40;9.37;;;;;;;21.74;64.91;98113.63;6942103;28;20345;-86
2023/08/27 04:15:59;;;;;;;10.57;9.50;;;;;;;22.02;64.48;98123.69;6941848;28;20218;-85
2023/08/27 04:19:21;;;;;;;9.93;8.93;;;;;;;22.13;64.49;98107.91;6941800;28;20222;-85
2023/08/27 04:22:42;;;;;;;9.77;8.83;;;;;;;22.27;63.89;98117.03;6941679;28;20235;-85
2023/08/27 04:26:04;;;;;;;10.53;7.30;;;;;;;22.42;62.86;98120.38;6941528;28;20304;-85
2023/08/27 04:29:29;;;;;;;9.97;7.93;;;;;;;22.24;64.08;98134.13;6940980;28;20353;-85
2023/08/27 04:32:50;;;;;;;9.30;7.60;;;;;;;22.20;63.30;98136.59;6944998;28;20285;-85
2023/08/27 04:36:12;;;;;;;12.67;8.00;;;;;;;22.06;64.32;98151.38;6946786;28;20261;-85
2023/08/27 04:39:33;;;;;;;7.80;7.10;;;;;;;22.20;63.67;98133.88;6947211;28;20332;-85
2023/08/27 04:42:55;;;;;;;11.50;7.50;;;;;;;21.10;66.06;98052.06;6953783;28;20276;-85
2023/08/27 04:46:18;;;;;;;10.80;8.07;;;;;;;21.11;67.28;98091.28;6973450;28;20195;-85
2023/08/27 04:49:40;;;;;;;8.93;7.80;;;;;;;20.61;68.90;98029.53;6974266;28;20786;-85
2023/08/27 04:53:01;;;;;;;8.07;7.37;;;;;;;20.93;69.27;98038.00;6974079;28;20222;-85
2023/08/27 04:56:23;;;;;;;8.40;7.60;;;;;;;21.61;66.84;98031.19;6973752;28;20214;-85
2023/08/27 04:59:44;;;;;;;8.43;7.23;;;;;;;21.77;66.05;98051.88;6973660;28;20231;-85
2023/08/27 05:03:07;;;;;;;8.47;7.53;;;;;;;21.81;64.96;98089.38;6973648;28;20272;-85
2023/08/27 05:06:29;;;;;;;8.23;7.17;;;;;;;21.69;65.97;98077.19;6973191;28;20202;-86
2023/08/27 05:09:50;;;;;;;9.37;7.93;;;;;;;21.96;65.82;98091.91;6974042;28;20790;-85
2023/08/27 05:13:12;;;;;;;9.30;8.27;;;;;;;22.11;65.86;98099.13;6973452;28;20315;-85
2023/08/27 05:16:37;;;;;;;9.10;8.27;;;;;;;21.46;66.22;98088.97;6967221;28;20306;-85
2023/08/27 05:20:03;;;;;;;13.20;10.53;;;;;;;20.97;68.22;98106.75;6973817;28;20352;-86
2023/08/27 05:23:26;;;;;;;10.77;9.13;;;;;;;21.70;66.96;98112.56;6973311;28;20242;-85
2023/08/27 05:26:55;;;;;;;10.07;9.17;;;;;;;21.84;66.55;98129.94;6972191;28;20205;-85
2023/08/27 05:30:17;;;;;;;10.80;9.80;;;;;;;21.98;67.30;98143.78;6973610;28;20218;-86
2023/08/27 05:33:38;;;;;;;11.40;10.23;;;;;;;22.19;66.65;98147.91;6973373;28;20226;-88
2023/08/27 05:37:01;;;;;;;11.67;10.60;;;;;;;21.84;67.21;98145.63;6971875;28;20745;-85
2023/08/27 05:40:23;;;;;;;12.30;10.97;;;;;;;22.07;66.75;98125.56;6972988;28;20222;-84
2023/08/27 05:43:45;;;;;;;10.97;9.83;;;;;;;22.27;65.82;98114.28;6972529;28;20309;-86
2023/08/27 05:47:06;;;;;;;10.73;9.73;;;;;;;22.44;65.50;98112.69;6972824;28;20265;-86
2023/08/27 05:50:28;;;;;;;10.03;9.10;;;;;;;22.55;65.09;98125.13;6972638;28;20345;-86
2023/08/27 05:53:50;;;;;;;10.63;9.47;;;;;;;22.42;65.11;98133.31;6972903;28;20316;-86
2023/08/27 05:57:12;;;;;;;9.77;8.83;;;;;;;22.27;64.99;98134.34;6972504;28;20211;-87
2023/08/27 06:00:34;;;;;;;10.27;9.17;;;;;;;22.02;65.26;98140.16;6973016;28;20317;-87
2023/08/27 06:03:58;;;;;;;10.17;9.27;;;;;;;22.43;64.51;98127.53;6971746;28;20316;-87
2023/08/27 06:07:19;;;;;;;12.40;8.57;;;;;;;22.54;64.40;98148.25;6971608;28;20267;-86
2023/08/27 06:10:43;;;;;;;9.73;8.80;;;;;;;22.88;64.20;98159.81;6972561;28;20348;-86
2023/08/27 06:14:05;;;;;;;9.10;8.10;;;;;;;22.87;63.57;98158.19;6972628;28;20366;-86
2023/08/27 06:17:26;;;;;;;12.07;9.23;;;;;;;21.75;63.92;98021.97;6971354;28;20199;-86
2023/08/27 06:21:15;;;;;;;8.73;7.97;;;;;;;22.92;63.36;98136.09;6970974;28;20362;-86
2023/08/27 06:24:36;;;;;;;10.00;8.27;;;;;;;22.71;63.10;98126.53;6972042;28;20379;-86
2023/08/27 06:28:03;;;;;;;8.67;7.77;;;;;;;21.97;65.15;98110.03;6971497;28;20674;-87
2023/08/27 06:31:25;;;;;;;7.53;6.83;;;;;;;22.18;64.73;98111.38;6968121;28;20210;-88
2023/08/27 06:34:46;;;;;;;7.33;6.63;;;;;;;22.55;64.49;98111.41;6972020;28;20369;-86
2023/08/27 06:38:08;;;;;;;7.00;6.30;;;;;;;22.83;63.92;98104.91;6970636;28;20210;-86
2023/08/27 06:41:30;;;;;;;7.83;6.93;;;;;;;23.15;62.72;98106.81;6972552;28;20313;-86
2023/08/27 06:44:53;;;;;;;9.73;8.20;;;;;;;22.42;65.06;98120.38;6975469;28;20366;-86
2023/08/27 06:48:15;;;;;;;7.87;7.17;;;;;;;22.86;64.67;98123.56;6958429;28;20245;-86
2023/08/27 06:51:37;;;;;;;8.87;6.70;;;;;;;22.63;64.07;98064.03;6943825;28;20661;-86
2023/08/27 06:54:58;;;;;;;6.23;5.67;;;;;;;23.38;62.81;98145.22;6953162;28;20226;-84
2023/08/27 06:58:20;;;;;;;3.50;3.20;;;;;;;23.31;60.01;98158.53;6970163;28;20237;-85
2023/08/27 07:01:43;;;;;;;3.40;3.10;;;;;;;22.74;62.08;98155.38;6970590;28;20368;-82
2023/08/27 07:05:08;;;;;;;5.87;3.00;;;;;;;22.91;62.57;98163.88;6970148;28;20288;-83
2023/08/27 07:08:30;;;;;;;2.70;2.50;;;;;;;22.94;61.59;98150.34;6970384;28;20344;-82
2023/08/27 07:11:51;;;;;;;3.13;2.43;;;;;;;23.24;60.77;98155.38;6970528;28;20249;-84
2023/08/27 07:15:13;;;;;;;3.77;2.37;;;;;;;23.39;59.93;98157.84;6969909;28;20315;-84
2023/08/27 07:18:39;;;;;;;2.93;2.63;;;;;;;23.67;58.06;98153.19;6949084;28;20208;-84
2023/08/27 07:22:00;;;;;;;3.07;2.30;;;;;;;23.44;57.82;98135.75;6942757;28;20225;-85
2023/08/27 07:25:23;;;;;;;2.33;2.17;;;;;;;23.43;58.52;98136.84;6942645;28;20849;-83
2023/08/27 07:28:44;;;;;;;2.10;2.00;;;;;;;23.60;57.44;98131.56;6942256;28;20208;-83
2023/08/27 07:32:06;;;;;;;2.40;1.90;;;;;;;23.40;57.89;98133.91;6958010;28;20293;-85
2023/08/27 07:35:31;;;;;;;2.33;2.00;;;;;;;23.52;57.08;98140.53;6969607;28;20228;-85
2023/08/27 07:39:00;;;;;;;2.73;2.03;;;;;;;23.36;57.13;98108.94;6954107;28;20213;-83
2023/08/27 07:42:22;;;;;;;3.63;2.00;;;;;;;23.50;56.99;98112.53;6968855;28;20303;-87
2023/08/27 07:45:43;;;;;;;2.40;2.20;;;;;;;23.81;56.37;98112.72;6966432;28;20200;-85
2023/08/27 07:49:05;;;;;;;2.50;2.30;;;;;;;23.88;56.60;98122.22;6969819;28;20241;-83
2023/08/27 07:52:28;;;;;;;3.07;2.13;;;;;;;24.07;56.54;98120.16;6959751;28;20259;-84
2023/08/27 07:55:49;;;;;;;2.53;2.23;;;;;;;24.12;56.43;98109.03;6942364;28;20299;-84
2023/08/27 07:59:11;;;;;;;2.73;2.30;;;;;;;23.92;56.27;98126.00;6967538;28;20684;-85
2023/08/27 08:02:32;;;;;;;2.30;2.10;;;;;;;23.80;57.60;98139.44;6968875;28;20321;-85
2023/08/27 08:05:54;;;;;;;2.20;2.10;;;;;;;24.07;57.03;98150.47;6970286;28;20675;-86
2023/08/27 08:09:17;;;;;;;3.53;2.30;;;;;;;24.00;57.34;98169.34;6974942;28;20348;-85
2023/08/27 08:12:41;;;;;;;2.67;2.47;;;;;;;23.35;57.80;98068.78;6970357;28;20234;-85
2023/08/27 08:16:03;;;;;;;2.50;2.20;;;;;;;23.90;57.85;98193.53;6957977;28;20205;-85
2023/08/27 08:19:24;;;;;;;2.60;2.40;;;;;;;24.00;56.64;98207.06;6947142;28;20295;-86
2023/08/27 08:22:46;;;;;;;2.20;2.00;;;;;;;23.18;59.45;98202.53;6946853;28;20231;-85
2023/08/27 08:26:09;;;;;;;2.73;2.30;;;;;;;23.07;58.48;98118.53;6946883;28;20211;-85
2023/08/27 08:29:32;;;;;;;2.47;2.10;;;;;;;23.57;57.34;98205.69;6947476;28;20213;-85
2023/08/27 08:32:54;;;;;;;4.17;2.10;;;;;;;23.45;58.12;98208.94;6968454;28;20218;-88
2023/08/27 08:36:15;;;;;;;2.53;2.33;;;;;;;23.72;57.61;98221.94;6968487;28;20269;-86
2023/08/27 08:39:37;;;;;;;2.37;2.00;;;;;;;23.12;58.26;98206.44;6974830;28;20243;-87
2023/08/27 08:43:00;;;;;;;2.40;2.20;;;;;;;23.57;57.31;98227.69;6975192;28;20668;-87
2023/08/27 08:46:26;;;;;;;2.93;2.23;;;;;;;23.51;57.54;98215.16;6973074;28;20555;-86
2023/08/27 08:49:50;;;;;;;2.40;2.20;;;;;;;24.14;55.32;98218.94;6974656;28;20262;-86
2023/08/27 08:53:15;;;;;;;2.20;2.00;;;;;;;23.95;56.40;98191.47;6974295;28;20241;-86
2023/08/27 08:56:38;;;;;;;2.70;2.27;;;;;;;23.90;56.64;98166.78;6973879;28;20358;-86
2023/08/27 09:00:03;;;;;;;2.30;1.80;;;;;;;24.03;56.16;98170.69;6974929;28;20794;-86
2023/08/27 09:03:25;;;;;;;2.30;2.10;;;;;;;24.38;54.63;98161.66;6979276;28;20638;-86
2023/08/27 09:06:47;;;;;;;2.13;2.03;;;;;;;24.48;55.36;98167.75;6973443;28;20289;-85
2023/08/27 09:10:09;;;;;;;2.47;2.27;;;;;;;24.71;54.49;98138.31;6973842;28;20340;-86
2023/08/27 09:13:32;;;;;;;2.00;1.83;;;;;;;24.72;55.45;98179.34;6973142;28;20224;-86
2023/08/27 09:16:54;;;;;;;2.83;2.00;;;;;;;24.77;54.98;98170.97;6971736;28;20279;-86
2023/08/27 09:20:16;;;;;;;3.73;2.20;;;;;;;24.89;55.09;98162.16;6973145;28;20263;-86
2023/08/27 09:23:38;;;;;;;4.43;2.17;;;;;;;24.33;54.36;98104.72;6973017;28;20237;-86
2023/08/27 09:26:59;;;;;;;1.87;1.70;;;;;;;24.63;54.37;98181.22;6970988;28;20216;-86
2023/08/27 09:30:22;;;;;;;2.87;1.83;;;;;;;24.75;54.37;98166.88;6973089;28;20222;-86
2023/08/27 09:33:45;;;;;;;2.27;2.07;;;;;;;24.98;55.04;98169.38;6982890;28;20842;-86
2023/08/27 09:37:07;;;;;;;2.37;1.90;;;;;;;24.77;54.35;98098.47;6965983;28;20289;-86
2023/08/27 09:40:28;;;;;;;2.53;2.10;;;;;;;24.73;53.45;98169.16;6945159;28;20296;-85
2023/08/27 09:43:52;;;;;;;3.03;2.03;;;;;;;24.75;53.23;98153.94;6968336;28;20226;-88
2023/08/27 09:47:14;;;;;;;1.90;1.80;;;;;;;24.68;54.08;98172.00;6971296;28;20205;-86
2023/08/27 09:50:37;;;;;;;3.40;2.20;;;;;;;24.34;54.98;98158.69;6971598;28;20351;-87
2023/08/27 09:53:59;;;;;;;6.33;2.33;;;;;;;24.81;52.91;98135.31;6972113;28;20324;-86
2023/08/27 09:57:21;;;;;;;2.20;1.97;;;;;;;25.12;52.27;98122.41;6977694;28;20215;-86
2023/08/27 10:00:43;;;;;;;3.07;2.10;;;;;;;25.55;50.41;98131.75;6971635;28;20202;-85
2023/08/27 10:04:07;;;;;;;3.27;2.03;;;;;;;26.12;49.63;98155.59;6971765;28;20221;-86
2023/08/27 10:07:30;;;;;;;2.27;1.90;;;;;;;25.48;50.04;98151.53;6971849;28;20702;-83
2023/08/27 10:10:51;;;;;;;2.83;2.23;;;;;;;25.64;50.31;98151.94;6971223;28;20262;-85
2023/08/27 10:14:14;;;;;;;2.93;2.13;;;;;;;25.67;50.37;98135.53;6971812;28;20385;-88
2023/08/27 10:17:36;;;;;;;1.87;1.77;;;;;;;26.11;49.50;98153.91;6971829;28;20243;-86
2023/08/27 10:20:59;;;;;;;1.87;1.77;;;;;;;25.93;49.48;98150.31;6972277;28;20680;-85
2023/08/27 10:24:22;;;;;;;2.93;1.93;;;;;;;25.97;48.33;98143.03;6973010;28;20366;-82
2023/08/27 10:27:45;;;;;;;2.17;1.97;;;;;;;25.69;48.95;98154.56;6971129;28;20204;-85
2023/08/27 10:31:07;;;;;;;3.50;2.10;;;;;;;25.62;48.70;98156.97;6971548;28;20354;-85
2023/08/27 10:34:29;;;;;;;4.97;2.10;;;;;;;25.59;49.54;98149.31;6972155;28;20760;-87
2023/08/27 10:37:53;;;;;;;1.93;1.80;;;;;;;25.38;48.86;98137.19;6971050;28;20259;-88
2023/08/27 10:41:18;;;;;;;2.70;1.87;;;;;;;25.96;49.37;98135.84;6971651;28;20242;-86
2023/08/27 10:44:39;;;;;;;2.00;1.60;;;;;;;26.31;47.96;98129.25;6971562;28;20609;-84
2023/08/27 10:48:07;;;;;;;2.50;1.77;;;;;;;26.47;47.55;98122.13;6970969;28;20220;-85
2023/08/27 10:51:31;;;;;;;2.17;1.90;;;;;;;26.62;47.19;98131.94;6971866;28;20209;-85
2023/08/27 10:54:59;;;;;;;2.67;1.90;;;;;;;26.88;46.26;98144.63;6971401;28;20368;-83
2023/08/27 10:58:24;;;;;;;1.77;1.67;;;;;;;27.13;45.72;98127.19;6971040;28;20646;-86
2023/08/27 11:02:07;;;;;;;2.47;1.57;;;;;;;27.00;46.16;98125.41;6970468;28;20309;-89
2023/08/27 11:05:29;;;;;;;2.00;1.80;;;;;;;26.89;46.77;98140.72;6968649;28;20225;-85
2023/08/27 11:08:52;;;;;;;1.80;1.60;;;;;;;26.96;45.84;98131.94;6969225;28;20292;-83
2023/08/27 11:12:25;;;;;;;2.60;1.80;;;;;;;26.49;46.17;98132.88;6969682;28;20548;-85
2023/08/27 11:15:48;;;;;;;1.83;1.70;;;;;;;26.78;45.97;98130.31;6942109;28;20213;-85
2023/08/27 11:19:10;;;;;;;2.37;1.73;;;;;;;26.52;46.82;98138.56;6966462;28;20295;-84
2023/08/27 11:22:32;;;;;;;2.67;2.10;;;;;;;26.26;48.23;98143.22;6969590;28;20313;-84
2023/08/27 11:25:53;;;;;;;3.40;2.83;;;;;;;26.60;46.52;98110.13;6969782;28;20231;-83
2023/08/27 11:29:15;;;;;;;4.10;3.67;;;;;;;26.29;47.37;98130.72;6969283;28;20290;-84
2023/08/27 11:32:38;;;;;;;2.93;2.73;;;;;;;26.06;48.29;98131.97;6969734;28;20288;-84
2023/08/27 11:36:00;;;;;;;3.10;2.30;;;;;;;26.06;47.98;98135.56;6941394;28;20292;-82
2023/08/27 11:39:21;;;;;;;2.33;2.00;;;;;;;26.23;46.91;98119.00;6958221;28;20293;-86
2023/08/27 11:42:49;;;;;;;4.00;2.60;;;;;;;26.78;46.53;98128.34;6969196;28;20682;-83
2023/08/27 11:46:21;;;;;;;3.30;2.20;;;;;;;26.67;46.59;98126.25;6969830;28;20194;-84
2023/08/27 11:49:44;;;;;;;2.33;2.10;;;;;;;26.79;47.50;98137.47;6970231;28;20719;-84
2023/08/27 11:53:05;;;;;;;2.10;2.00;;;;;;;26.48;48.45;98129.28;6969943;28;20363;-83
2023/08/27 11:56:28;;;;;;;2.93;2.20;;;;;;;26.11;48.95;98138.16;6969375;28;20358;-82
2023/08/27 11:59:51;;;;;;;2.10;2.00;;;;;;;25.89;48.51;98102.31;6970281;28;20243;-85
2023/08/27 12:03:13;;;;;;;4.00;2.60;;;;;;;25.74;49.86;98144.19;6972361;28;20236;-83
2023/08/27 12:06:36;;;;;;;3.10;2.20;;;;;;;25.66;51.10;98139.44;6972541;28;20217;-84
2023/08/27 12:09:57;;;;;;;3.33;2.07;;;;;;;25.67;50.27;98130.00;6968917;28;20705;-85
2023/08/27 12:13:19;;;;;;;2.23;2.00;;;;;;;25.64;50.20;98140.88;6970448;28;20233;-83
2023/08/27 12:16:45;;;;;;;2.70;2.13;;;;;;;25.71;49.27;98102.59;6968568;28;20312;-85
2023/08/27 12:20:08;;;;;;;5.57;2.93;;;;;;;25.76;49.46;98136.41;6969875;28;20218;-85
2023/08/27 12:23:33;;;;;;;3.87;2.63;;;;;;;25.61;49.88;98136.00;6969188;28;20728;-86
2023/08/27 12:26:54;;;;;;;2.80;2.40;;;;;;;25.37;50.66;98133.59;6969396;28;20297;-85
2023/08/27 12:30:16;;;;;;;2.40;2.20;;;;;;;25.75;49.90;98133.94;6969495;28;20768;-86
2023/08/27 12:33:39;;;;;;;2.30;2.10;;;;;;;25.82;50.00;98135.13;6969093;28;20225;-84
2023/08/27 12:37:00;;;;;;;2.10;1.90;;;;;;;26.47;48.49;98133.19;6968570;28;20252;-86
2023/08/27 12:40:23;;;;;;;2.30;2.10;;;;;;;26.47;47.39;98135.13;6968965;28;20203;-87
2023/08/27 12:43:45;;;;;;;3.07;1.90;;;;;;;26.53;47.17;98120.00;6969398;28;20313;-87
2023/08/27 12:47:07;;;;;;;2.27;2.07;;;;;;;26.75;47.41;98122.66;6969819;28;20553;-86
2023/08/27 12:50:29;;;;;;;2.50;2.30;;;;;;;26.66;46.33;98132.94;6973101;28;20318;-89
2023/08/27 12:53:50;;;;;;;3.50;2.00;;;;;;;26.54;47.79;98128.03;6974340;28;20309;-88
2023/08/27 12:57:13;;;;;;;3.13;2.33;;;;;;;26.92;46.36;98117.94;6974644;28;20328;-88
2023/08/27 13:00:35;;;;;;;5.77;4.33;;;;;;;27.02;46.96;98128.66;6974912;28;20293;-85
2023/08/27 13:03:56;;;;;;;5.47;2.93;;;;;;;26.99;46.38;98128.50;6973898;28;20323;-87
2023/08/27 13:07:19;;;;;;;3.13;2.40;;;;;;;26.88;46.66;98116.97;6977459;28;20361;-85
2023/08/27 13:10:41;;;;;;;2.43;2.20;;;;;;;26.58;47.59;98114.34;6979756;28;20300;-85
2023/08/27 13:14:04;;;;;;;2.30;2.10;;;;;;;26.27;49.43;98095.13;6972840;28;20624;-88
2023/08/27 13:17:26;;;;;;;2.20;2.00;;;;;;;26.50;48.28;98091.09;6972866;28;20335;-87
2023/08/27 13:20:48;;;;;;;3.73;2.73;;;;;;;26.56;48.07;98106.41;6974536;28;20295;-86
2023/08/27 13:24:09;;;;;;;3.20;2.00;;;;;;;26.85;47.09;98100.22;6980266;28;20794;-85
2023/08/27 13:27:31;;;;;;;3.50;2.10;;;;;;;27.17;46.36;98106.03;6980896;28;20556;-85
2023/08/27 13:30:54;;;;;;;2.40;2.20;;;;;;;26.72;46.87;98043.13;6986552;28;20210;-85
2023/08/27 13:34:15;;;;;;;4.07;2.30;;;;;;;27.22;46.24;98094.81;6980925;28;20852;-85
2023/08/27 13:37:37;;;;;;;2.10;1.90;;;;;;;27.08;46.22;98093.34;6979691;28;20690;-85
2023/08/27 13:40:59;;;;;;;2.33;2.03;;;;;;;26.66;46.85;98095.00;6979909;28;20209;-85
2023/08/27 13:44:20;;;;;;;3.17;2.40;;;;;;;26.26;47.39;97987.66;6980693;28;20283;-85
2023/08/27 13:47:43;;;;;;;2.30;2.10;;;;;;;26.97;46.73;98115.00;6981325;28;20220;-85
2023/08/27 13:51:05;;;;;;;2.50;2.30;;;;;;;26.87;47.55;98118.09;6980432;28;20222;-85
2023/08/27 13:54:26;;;;;;;2.20;2.00;;;;;;;26.91;47.29;98110.78;6980852;28;20710;-86
2023/08/27 13:57:48;;;;;;;3.20;2.30;;;;;;;27.03;46.58;98122.00;6981356;28;20210;-85
2023/08/27 14:01:09;;;;;;;2.60;2.23;;;;;;;26.94;46.68;98126.72;6981260;28;20318;-86
2023/08/27 14:04:32;;;;;;;2.13;1.97;;;;;;;26.62;47.71;98130.00;6980127;28;20609;-85
2023/08/27 14:07:54;;;;;;;2.30;2.10;;;;;;;26.91;46.51;98113.56;6980104;28;20504;-86
2023/08/27 14:11:15;;;;;;;2.60;2.07;;;;;;;26.76;47.46;98113.22;6980204;28;20726;-85
2023/08/27 14:14:37;;;;;;;2.50;1.97;;;;;;;26.97;46.66;98112.25;6980033;28;20242;-85
2023/08/27 14:17:58;;;;;;;3.00;2.07;;;;;;;26.79;46.70;98058.06;6978651;28;20209;-85
2023/08/27 14:21:21;;;;;;;1.87;1.77;;;;;;;26.70;47.45;98092.41;6977809;28;20572;-85
2023/08/27 14:24:43;;;;;;;3.30;2.33;;;;;;;26.67;47.86;98099.38;6978403;28;20257;-86
2023/08/27 14:28:05;;;;;;;2.37;2.10;;;;;;;26.60;47.27;98109.34;6978158;28;20272;-85
2023/08/27 14:31:27;;;;;;;2.90;2.20;;;;;;;26.38;47.96;98087.31;6977771;28;20206;-85
2023/08/27 14:34:49;;;;;;;2.33;2.10;;;;;;;26.71;48.25;98103.13;6978219;28;20363;-85
2023/08/27 14:38:12;;;;;;;4.13;2.10;;;;;;;26.77;48.72;98103.81;6977108;28;20209;-86
2023/08/27 14:41:33;;;;;;;2.83;2.47;;;;;;;26.68;49.01;98097.44;6976057;28;20283;-85
2023/08/27 14:44:55;;;;;;;4.10;2.70;;;;;;;26.28;52.76;98127.16;6975392;28;20233;-85
2023/08/27 14:48:16;;;;;;;5.23;2.60;;;;;;;25.77;54.90;98159.31;6976511;28;20350;-85
2023/08/27 14:51:38;;;;;;;4.70;2.73;;;;;;;24.22;55.62;98177.69;6978119;28;20305;-85
2023/08/27 14:55:01;;;;;;;3.80;3.03;;;;;;;23.31;58.66;98166.00;6978904;28;20233;-85
2023/08/27 14:58:22;;;;;;;2.87;2.33;;;;;;;23.08;58.89;98186.97;6985763;28;20207;-86
2023/08/27 15:01:44;;;;;;;4.07;2.77;;;;;;;22.42;60.82;98150.59;6977745;28;20723;-85
2023/08/27 15:05:06;;;;;;;3.10;2.83;;;;;;;22.42;61.04;98219.25;6976770;28;20222;-84
2023/08/27 15:08:40;;;;;;;5.57;3.23;;;;;;;22.58;62.42;98225.41;6978461;28;20211;-84
2023/08/27 15:12:04;;;;;;;4.67;3.13;;;;;;;22.36;62.56;98222.41;6978563;28;20690;-86
2023/08/27 15:15:28;;;;;;;3.90;2.97;;;;;;;22.13;62.60;98224.03;6963302;28;20228;-85
2023/08/27 15:18:49;;;;;;;3.93;3.10;;;;;;;21.81;63.38;98228.53;6969275;28;20233;-86
2023/08/27 15:22:11;;;;;;;3.57;2.87;;;;;;;21.71;64.49;98221.22;6943125;28;20672;-84
2023/08/27 15:25:32;;;;;;;4.23;3.20;;;;;;;21.89;64.16;98201.25;6942960;28;20230;-86
2023/08/27 15:28:55;;;;;;;2.93;2.63;;;;;;;22.39;63.11;98214.38;6953232;28;20283;-85
2023/08/27 15:32:17;;;;;;;4.47;3.10;;;;;;;22.90;62.14;98218.03;6971891;28;20293;-87
2023/08/27 15:35:38;;;;;;;4.47;2.83;;;;;;;23.10;59.79;98219.66;6969559;28;20231;-84
2023/08/27 15:39:00;;;;;;;4.37;3.30;;;;;;;23.25;60.39;98214.75;6969953;28;20229;-87
2023/08/27 15:42:27;;;;;;;3.77;3.00;;;;;;;22.86;60.61;98191.47;6969779;28;20725;-86
2023/08/27 15:45:52;;;;;;;3.87;3.10;;;;;;;22.88;60.53;98203.78;6969434;28;20199;-87
2023/08/27 15:49:14;;;;;;;2.70;2.50;;;;;;;23.13;59.73;98203.38;6977778;28;20756;-84
2023/08/27 15:52:35;;;;;;;2.97;2.77;;;;;;;23.03;59.10;98206.31;6971933;28;20607;-83